Warsaw, NY (14569)

4:22 AM EST on February 14, 2016 (GMT -0500)
The Center Perry | | Change Station
CLOSE
Current Station
Personal Weather Station
Location: Perry, NY
Elevation: 1358 ft
Nearby Weather Stations
Active Advisory: Wind Chill Warning Active Notice: Local Storm Report

Elev 1358 ft 42.72 °N, 78.00 °W | Updated 12 minutes ago

Mostly Cloudy
Mostly Cloudy
-14.8 °F
Feels Like -15 °F
N
0.0
Wind Variable Wind from South

Today
High -- | Low -- °F
--% Chance of Precip.
Yesterday
High -- | Low -- °F
Precip. -- in
Pressure 30.54 in
Visibility 10.0 miles
Clouds Clear
Windchill -15 °F
Dew Point -19 °F
Humidity 82%
Rainfall 0.00 in
Snow Depth Not available.
7:11 AM 5:42 PM
Waxing Crescent, 40% visible
METAR KDSV 140854Z AUTO 33004KT 10SM CLR M22/M25 A3045 RMK AO2 SLP341 T12221250 51010
Pressure 30.54 in
Visibility 10.0 miles
Clouds Clear
Windchill -15 °F
Dew Point -19 °F
Humidity 82%
Rainfall 0.00 in
Snow Depth Not available.
7:11 AM 5:42 PM
Waxing Crescent, 40% visible
METAR KDSV 140854Z AUTO 33004KT 10SM CLR M22/M25 A3045 RMK AO2 SLP341 T12221250 51010

10-Day Weather Forecast

Almanac

Astronomy

Feb. 14, 2016 Rise Set
Actual Time
Civil Twilight
Nautical Twilight
Astronomical Twilight
Moon
Length of Visible Light
Length of Day
Tomorrow will be .
, % of the Moon is Illuminated

Today's Extremes

State Highs State Lows

Community

WunderPhotos

Upload Photos

1,892,761 photos uploaded!

WunderBlog® & News

Nearby

Air Quality

  Air Quality AQ Index Pollutant
Not available.

Snow Depth

Station Depth Elevation

Earthquake Activity

City Distance Mag. Time & Date
Minimum magnitude displayed is 2.5.

Coastal Water Temperatures

Place Temperature

Stations

Nearby Weather Stations

Station Location Temp. Windchill Dew Point Humidity Wind Precip. Elev Updated Type
                   

Watches & Warnings

Wind Chill Warning
Issued: 3:33 AM EST Feb. 14, 2016 – National Weather Service

... Wind chill warning remains in effect until 10 am EST this
morning...

* locations... Niagara Frontier... western southern tier...
Livingston... and Ontario counties.

* Timing... through late this morning.

* Wind chill values... as low as 25 below.

* Impacts... wind chills and temperatures will reach dangerously
cold levels. The frigid conditions could result in frozen
pipes... and will quickly lead to frostbite and hypothermia if
you are not properly dressed.

Precautionary/preparedness actions...

Stay tuned to NOAA Weather Radio or your favorite source of
weather information for the latest updates. Additional details
can also be found at www.Weather.Gov/Buffalo.

A wind chill warning is issued when a strong wind will combine
with cold temperatures to create dangerously cold conditions for
exposed skin. The wind will make it feel like it is 25 degrees
below zero or colder for several hours. Those planning to venture
outdoors should use common sense and dress warmly.